sensor_id;sensor_type;location;lat;lon;timestamp;P1;durP1;ratioP1;P2;durP2;ratioP2
55364;SDS011;41245;45.384;20.390;2024-01-06T00:01:43;12.18;;;5.90;;
55364;SDS011;41245;45.384;20.390;2024-01-06T00:04:09;11.80;;;5.78;;
55364;SDS011;41245;45.384;20.390;2024-01-06T00:06:35;13.50;;;5.45;;
55364;SDS011;41245;45.384;20.390;2024-01-06T00:09:01;13.80;;;6.57;;
55364;SDS011;41245;45.384;20.390;2024-01-06T00:11:28;12.20;;;4.88;;
55364;SDS011;41245;45.384;20.390;2024-01-06T00:13:54;16.77;;;5.35;;
55364;SDS011;41245;45.384;20.390;2024-01-06T00:16:20;11.05;;;5.45;;
55364;SDS011;41245;45.384;20.390;2024-01-06T00:18:48;12.85;;;5.40;;
55364;SDS011;41245;45.384;20.390;2024-01-06T00:21:14;11.55;;;5.60;;
55364;SDS011;41245;45.384;20.390;2024-01-06T00:23:41;13.90;;;5.95;;
55364;SDS011;41245;45.384;20.390;2024-01-06T00:26:07;10.48;;;5.57;;
55364;SDS011;41245;45.384;20.390;2024-01-06T00:28:33;12.50;;;5.45;;
55364;SDS011;41245;45.384;20.390;2024-01-06T00:31:00;14.02;;;5.65;;
55364;SDS011;41245;45.384;20.390;2024-01-06T00:33:26;9.23;;;5.28;;
55364;SDS011;41245;45.384;20.390;2024-01-06T00:35:52;11.15;;;6.10;;
55364;SDS011;41245;45.384;20.390;2024-01-06T00:38:20;13.63;;;5.13;;
55364;SDS011;41245;45.384;20.390;2024-01-06T00:40:46;10.02;;;5.07;;
55364;SDS011;41245;45.384;20.390;2024-01-06T00:43:12;10.57;;;4.45;;
55364;SDS011;41245;45.384;20.390;2024-01-06T00:45:38;11.63;;;5.03;;
55364;SDS011;41245;45.384;20.390;2024-01-06T00:48:04;17.45;;;5.13;;
55364;SDS011;41245;45.384;20.390;2024-01-06T00:50:30;13.63;;;5.63;;
55364;SDS011;41245;45.384;20.390;2024-01-06T00:52:56;9.57;;;5.55;;
55364;SDS011;41245;45.384;20.390;2024-01-06T00:55:22;14.82;;;5.22;;
55364;SDS011;41245;45.384;20.390;2024-01-06T00:57:50;9.88;;;5.05;;
55364;SDS011;41245;45.384;20.390;2024-01-06T01:00:16;10.25;;;5.50;;
55364;SDS011;41245;45.384;20.390;2024-01-06T01:02:42;14.90;;;5.38;;
55364;SDS011;41245;45.384;20.390;2024-01-06T01:05:08;9.98;;;4.97;;
55364;SDS011;41245;45.384;20.390;2024-01-06T01:07:34;9.25;;;4.95;;
55364;SDS011;41245;45.384;20.390;2024-01-06T01:10:00;14.65;;;5.80;;
55364;SDS011;41245;45.384;20.390;2024-01-06T01:12:26;16.40;;;5.85;;
55364;SDS011;41245;45.384;20.390;2024-01-06T01:14:52;10.38;;;5.40;;
55364;SDS011;41245;45.384;20.390;2024-01-06T01:17:19;16.33;;;6.13;;
55364;SDS011;41245;45.384;20.390;2024-01-06T01:19:45;14.18;;;5.82;;
55364;SDS011;41245;45.384;20.390;2024-01-06T01:22:11;8.48;;;4.57;;
55364;SDS011;41245;45.384;20.390;2024-01-06T01:24:37;14.07;;;5.00;;
55364;SDS011;41245;45.384;20.390;2024-01-06T01:27:04;8.93;;;4.88;;
55364;SDS011;41245;45.384;20.390;2024-01-06T01:29:30;9.30;;;4.53;;
55364;SDS011;41245;45.384;20.390;2024-01-06T01:31:56;10.30;;;4.28;;
55364;SDS011;41245;45.384;20.390;2024-01-06T01:34:22;10.50;;;4.30;;
55364;SDS011;41245;45.384;20.390;2024-01-06T01:36:48;10.80;;;4.47;;
55364;SDS011;41245;45.384;20.390;2024-01-06T01:39:15;8.88;;;3.75;;
55364;SDS011;41245;45.384;20.390;2024-01-06T01:41:41;9.13;;;4.40;;
55364;SDS011;41245;45.384;20.390;2024-01-06T01:44:07;7.45;;;3.65;;
55364;SDS011;41245;45.384;20.390;2024-01-06T01:46:33;10.20;;;5.35;;
55364;SDS011;41245;45.384;20.390;2024-01-06T01:49:00;10.80;;;4.07;;
55364;SDS011;41245;45.384;20.390;2024-01-06T01:51:27;8.50;;;3.83;;
55364;SDS011;41245;45.384;20.390;2024-01-06T01:53:54;9.40;;;3.90;;
55364;SDS011;41245;45.384;20.390;2024-01-06T01:56:20;10.15;;;4.60;;
55364;SDS011;41245;45.384;20.390;2024-01-06T01:58:46;8.75;;;4.05;;
55364;SDS011;41245;45.384;20.390;2024-01-06T02:01:13;6.60;;;3.30;;
55364;SDS011;41245;45.384;20.390;2024-01-06T02:03:40;8.23;;;3.97;;
55364;SDS011;41245;45.384;20.390;2024-01-06T02:08:35;9.88;;;3.88;;
55364;SDS011;41245;45.384;20.390;2024-01-06T02:11:01;11.23;;;3.58;;
55364;SDS011;41245;45.384;20.390;2024-01-06T02:13:32;6.68;;;4.15;;
55364;SDS011;41245;45.384;20.390;2024-01-06T02:15:59;8.13;;;4.20;;
55364;SDS011;41245;45.384;20.390;2024-01-06T02:18:25;13.93;;;5.03;;
55364;SDS011;41245;45.384;20.390;2024-01-06T02:20:51;13.20;;;3.95;;
55364;SDS011;41245;45.384;20.390;2024-01-06T02:23:18;11.45;;;4.13;;
55364;SDS011;41245;45.384;20.390;2024-01-06T02:25:44;7.28;;;3.88;;
55364;SDS011;41245;45.384;20.390;2024-01-06T02:28:11;11.02;;;4.95;;
55364;SDS011;41245;45.384;20.390;2024-01-06T02:30:37;7.15;;;3.63;;
55364;SDS011;41245;45.384;20.390;2024-01-06T02:33:03;10.90;;;5.28;;
55364;SDS011;41245;45.384;20.390;2024-01-06T02:35:29;11.60;;;5.75;;
55364;SDS011;41245;45.384;20.390;2024-01-06T02:37:55;12.07;;;5.38;;
55364;SDS011;41245;45.384;20.390;2024-01-06T02:40:21;9.68;;;4.45;;
55364;SDS011;41245;45.384;20.390;2024-01-06T02:42:47;7.88;;;4.50;;
55364;SDS011;41245;45.384;20.390;2024-01-06T02:45:13;12.18;;;4.60;;
55364;SDS011;41245;45.384;20.390;2024-01-06T02:47:39;17.60;;;7.47;;
55364;SDS011;41245;45.384;20.390;2024-01-06T02:50:05;19.45;;;8.05;;
55364;SDS011;41245;45.384;20.390;2024-01-06T02:52:31;11.13;;;5.82;;
55364;SDS011;41245;45.384;20.390;2024-01-06T02:54:57;10.50;;;4.65;;
55364;SDS011;41245;45.384;20.390;2024-01-06T02:57:24;7.55;;;4.47;;
55364;SDS011;41245;45.384;20.390;2024-01-06T02:59:50;9.65;;;4.35;;
55364;SDS011;41245;45.384;20.390;2024-01-06T03:02:16;8.10;;;5.00;;
55364;SDS011;41245;45.384;20.390;2024-01-06T03:04:42;11.38;;;4.38;;
55364;SDS011;41245;45.384;20.390;2024-01-06T03:07:08;10.50;;;5.88;;
55364;SDS011;41245;45.384;20.390;2024-01-06T03:09:35;20.17;;;5.25;;
55364;SDS011;41245;45.384;20.390;2024-01-06T03:12:01;28.52;;;11.45;;
55364;SDS011;41245;45.384;20.390;2024-01-06T03:14:27;22.33;;;9.55;;
55364;SDS011;41245;45.384;20.390;2024-01-06T03:16:53;44.88;;;14.57;;
55364;SDS011;41245;45.384;20.390;2024-01-06T03:19:19;39.22;;;14.90;;
55364;SDS011;41245;45.384;20.390;2024-01-06T03:21:45;15.75;;;7.38;;
55364;SDS011;41245;45.384;20.390;2024-01-06T03:24:11;8.05;;;4.45;;
55364;SDS011;41245;45.384;20.390;2024-01-06T03:26:38;8.30;;;4.00;;
55364;SDS011;41245;45.384;20.390;2024-01-06T03:29:04;10.43;;;4.30;;
55364;SDS011;41245;45.384;20.390;2024-01-06T03:31:30;8.75;;;4.20;;
55364;SDS011;41245;45.384;20.390;2024-01-06T03:33:56;7.18;;;3.78;;
55364;SDS011;41245;45.384;20.390;2024-01-06T03:36:22;9.07;;;4.50;;
55364;SDS011;41245;45.384;20.390;2024-01-06T03:38:48;9.82;;;3.65;;
55364;SDS011;41245;45.384;20.390;2024-01-06T03:41:14;12.98;;;5.22;;
55364;SDS011;41245;45.384;20.390;2024-01-06T03:43:40;5.57;;;3.78;;
55364;SDS011;41245;45.384;20.390;2024-01-06T03:46:07;9.93;;;4.40;;
55364;SDS011;41245;45.384;20.390;2024-01-06T03:48:33;10.07;;;3.60;;
55364;SDS011;41245;45.384;20.390;2024-01-06T03:51:00;11.50;;;4.35;;
55364;SDS011;41245;45.384;20.390;2024-01-06T03:53:26;6.55;;;3.95;;
55364;SDS011;41245;45.384;20.390;2024-01-06T03:55:52;11.80;;;5.28;;
55364;SDS011;41245;45.384;20.390;2024-01-06T03:58:18;29.48;;;9.00;;
55364;SDS011;41245;45.384;20.390;2024-01-06T04:00:44;17.80;;;7.43;;
55364;SDS011;41245;45.384;20.390;2024-01-06T04:03:10;15.57;;;6.93;;
55364;SDS011;41245;45.384;20.390;2024-01-06T04:05:36;14.57;;;6.18;;
55364;SDS011;41245;45.384;20.390;2024-01-06T04:08:02;9.45;;;4.55;;
55364;SDS011;41245;45.384;20.390;2024-01-06T04:10:28;10.05;;;4.28;;
55364;SDS011;41245;45.384;20.390;2024-01-06T04:12:54;7.90;;;4.43;;
55364;SDS011;41245;45.384;20.390;2024-01-06T04:15:20;10.77;;;4.38;;
55364;SDS011;41245;45.384;20.390;2024-01-06T04:17:48;7.30;;;3.55;;
55364;SDS011;41245;45.384;20.390;2024-01-06T04:20:14;8.20;;;3.70;;
55364;SDS011;41245;45.384;20.390;2024-01-06T04:22:40;9.05;;;3.55;;
55364;SDS011;41245;45.384;20.390;2024-01-06T04:25:06;6.95;;;3.15;;
55364;SDS011;41245;45.384;20.390;2024-01-06T04:27:32;8.68;;;3.42;;
55364;SDS011;41245;45.384;20.390;2024-01-06T04:29:59;9.27;;;3.70;;
55364;SDS011;41245;45.384;20.390;2024-01-06T04:32:25;12.57;;;3.30;;
55364;SDS011;41245;45.384;20.390;2024-01-06T04:34:51;9.02;;;3.45;;
55364;SDS011;41245;45.384;20.390;2024-01-06T04:37:17;4.35;;;3.22;;
55364;SDS011;41245;45.384;20.390;2024-01-06T04:39:43;7.10;;;3.42;;
55364;SDS011;41245;45.384;20.390;2024-01-06T04:42:10;9.27;;;4.72;;
55364;SDS011;41245;45.384;20.390;2024-01-06T04:44:36;10.75;;;3.72;;
55364;SDS011;41245;45.384;20.390;2024-01-06T04:47:02;9.43;;;4.13;;
55364;SDS011;41245;45.384;20.390;2024-01-06T04:49:28;6.05;;;3.45;;
55364;SDS011;41245;45.384;20.390;2024-01-06T04:51:54;5.43;;;3.17;;
55364;SDS011;41245;45.384;20.390;2024-01-06T04:54:20;8.93;;;3.47;;
55364;SDS011;41245;45.384;20.390;2024-01-06T04:56:46;5.68;;;3.83;;
55364;SDS011;41245;45.384;20.390;2024-01-06T04:59:13;8.93;;;3.20;;
55364;SDS011;41245;45.384;20.390;2024-01-06T05:01:39;9.32;;;4.10;;
55364;SDS011;41245;45.384;20.390;2024-01-06T05:04:05;7.88;;;3.78;;
55364;SDS011;41245;45.384;20.390;2024-01-06T05:06:31;8.60;;;4.38;;
55364;SDS011;41245;45.384;20.390;2024-01-06T05:08:57;9.25;;;4.95;;
55364;SDS011;41245;45.384;20.390;2024-01-06T05:11:23;5.97;;;3.95;;
55364;SDS011;41245;45.384;20.390;2024-01-06T05:13:49;10.63;;;4.28;;
55364;SDS011;41245;45.384;20.390;2024-01-06T05:16:15;10.30;;;4.15;;
55364;SDS011;41245;45.384;20.390;2024-01-06T05:18:41;7.43;;;3.47;;
55364;SDS011;41245;45.384;20.390;2024-01-06T05:21:07;7.55;;;3.90;;
55364;SDS011;41245;45.384;20.390;2024-01-06T05:23:33;8.43;;;4.03;;
55364;SDS011;41245;45.384;20.390;2024-01-06T05:25:59;13.40;;;3.95;;
55364;SDS011;41245;45.384;20.390;2024-01-06T05:28:25;10.23;;;3.83;;
55364;SDS011;41245;45.384;20.390;2024-01-06T05:30:51;11.35;;;3.78;;
55364;SDS011;41245;45.384;20.390;2024-01-06T05:33:17;7.45;;;3.72;;
55364;SDS011;41245;45.384;20.390;2024-01-06T05:35:43;8.88;;;3.67;;
55364;SDS011;41245;45.384;20.390;2024-01-06T05:38:09;6.97;;;3.15;;
55364;SDS011;41245;45.384;20.390;2024-01-06T05:40:35;5.28;;;3.30;;
55364;SDS011;41245;45.384;20.390;2024-01-06T05:43:01;13.65;;;2.90;;
55364;SDS011;41245;45.384;20.390;2024-01-06T05:45:28;11.95;;;4.80;;
55364;SDS011;41245;45.384;20.390;2024-01-06T05:47:54;5.47;;;3.42;;
55364;SDS011;41245;45.384;20.390;2024-01-06T05:50:20;13.30;;;4.00;;
55364;SDS011;41245;45.384;20.390;2024-01-06T05:52:46;7.82;;;3.72;;
55364;SDS011;41245;45.384;20.390;2024-01-06T05:55:15;8.35;;;3.53;;
55364;SDS011;41245;45.384;20.390;2024-01-06T05:57:41;11.82;;;3.60;;
55364;SDS011;41245;45.384;20.390;2024-01-06T06:00:08;6.68;;;3.42;;
55364;SDS011;41245;45.384;20.390;2024-01-06T06:02:34;6.80;;;3.47;;
55364;SDS011;41245;45.384;20.390;2024-01-06T06:05:00;8.27;;;3.15;;
55364;SDS011;41245;45.384;20.390;2024-01-06T06:07:26;5.45;;;3.13;;
55364;SDS011;41245;45.384;20.390;2024-01-06T06:09:52;4.85;;;3.10;;
55364;SDS011;41245;45.384;20.390;2024-01-06T06:12:19;7.60;;;3.22;;
55364;SDS011;41245;45.384;20.390;2024-01-06T06:14:45;10.35;;;4.13;;
55364;SDS011;41245;45.384;20.390;2024-01-06T06:17:11;6.22;;;3.40;;
55364;SDS011;41245;45.384;20.390;2024-01-06T06:19:37;8.07;;;3.45;;
55364;SDS011;41245;45.384;20.390;2024-01-06T06:22:03;5.47;;;3.45;;
55364;SDS011;41245;45.384;20.390;2024-01-06T06:24:29;9.23;;;3.67;;
55364;SDS011;41245;45.384;20.390;2024-01-06T06:26:56;8.52;;;4.07;;
55364;SDS011;41245;45.384;20.390;2024-01-06T06:29:22;5.35;;;3.15;;
55364;SDS011;41245;45.384;20.390;2024-01-06T06:31:49;10.18;;;3.45;;
55364;SDS011;41245;45.384;20.390;2024-01-06T06:34:15;7.93;;;3.17;;
55364;SDS011;41245;45.384;20.390;2024-01-06T06:36:41;15.85;;;3.85;;
55364;SDS011;41245;45.384;20.390;2024-01-06T06:39:07;10.57;;;3.40;;
55364;SDS011;41245;45.384;20.390;2024-01-06T06:41:33;6.38;;;3.15;;
55364;SDS011;41245;45.384;20.390;2024-01-06T06:43:59;6.47;;;3.55;;
55364;SDS011;41245;45.384;20.390;2024-01-06T06:46:25;9.98;;;4.13;;
55364;SDS011;41245;45.384;20.390;2024-01-06T06:48:51;9.98;;;4.53;;
55364;SDS011;41245;45.384;20.390;2024-01-06T06:51:17;6.00;;;3.20;;
55364;SDS011;41245;45.384;20.390;2024-01-06T06:53:43;5.40;;;3.30;;
55364;SDS011;41245;45.384;20.390;2024-01-06T06:56:09;12.23;;;4.10;;
55364;SDS011;41245;45.384;20.390;2024-01-06T06:58:36;10.88;;;4.50;;
55364;SDS011;41245;45.384;20.390;2024-01-06T07:01:02;10.27;;;3.47;;
55364;SDS011;41245;45.384;20.390;2024-01-06T07:03:28;7.63;;;4.00;;
55364;SDS011;41245;45.384;20.390;2024-01-06T07:05:54;7.70;;;3.90;;
55364;SDS011;41245;45.384;20.390;2024-01-06T07:08:20;8.30;;;4.15;;
55364;SDS011;41245;45.384;20.390;2024-01-06T07:10:46;23.38;;;5.68;;
55364;SDS011;41245;45.384;20.390;2024-01-06T07:13:12;11.55;;;4.97;;
55364;SDS011;41245;45.384;20.390;2024-01-06T07:15:38;15.70;;;5.60;;
55364;SDS011;41245;45.384;20.390;2024-01-06T07:18:04;10.60;;;5.20;;
55364;SDS011;41245;45.384;20.390;2024-01-06T07:20:31;8.98;;;4.45;;
55364;SDS011;41245;45.384;20.390;2024-01-06T07:22:57;11.07;;;4.07;;
55364;SDS011;41245;45.384;20.390;2024-01-06T07:25:23;11.18;;;4.15;;
55364;SDS011;41245;45.384;20.390;2024-01-06T07:27:49;7.05;;;4.15;;
55364;SDS011;41245;45.384;20.390;2024-01-06T07:30:15;8.32;;;4.00;;
55364;SDS011;41245;45.384;20.390;2024-01-06T07:32:41;9.70;;;4.72;;
55364;SDS011;41245;45.384;20.390;2024-01-06T07:35:07;7.40;;;3.63;;
55364;SDS011;41245;45.384;20.390;2024-01-06T07:37:34;9.02;;;3.67;;
55364;SDS011;41245;45.384;20.390;2024-01-06T07:40:00;7.53;;;4.10;;
55364;SDS011;41245;45.384;20.390;2024-01-06T07:42:26;15.35;;;4.38;;
55364;SDS011;41245;45.384;20.390;2024-01-06T07:44:52;10.07;;;4.93;;
55364;SDS011;41245;45.384;20.390;2024-01-06T07:47:18;9.05;;;4.75;;
55364;SDS011;41245;45.384;20.390;2024-01-06T07:49:44;9.05;;;4.35;;
55364;SDS011;41245;45.384;20.390;2024-01-06T07:52:11;14.07;;;4.55;;
55364;SDS011;41245;45.384;20.390;2024-01-06T07:54:38;8.52;;;3.92;;
55364;SDS011;41245;45.384;20.390;2024-01-06T07:57:04;7.13;;;4.35;;
55364;SDS011;41245;45.384;20.390;2024-01-06T07:59:30;11.02;;;5.53;;
55364;SDS011;41245;45.384;20.390;2024-01-06T08:01:56;13.27;;;4.80;;
55364;SDS011;41245;45.384;20.390;2024-01-06T08:04:23;13.43;;;5.07;;
55364;SDS011;41245;45.384;20.390;2024-01-06T08:06:49;8.40;;;4.70;;
55364;SDS011;41245;45.384;20.390;2024-01-06T08:09:15;9.20;;;4.10;;
55364;SDS011;41245;45.384;20.390;2024-01-06T08:11:41;8.30;;;3.72;;
55364;SDS011;41245;45.384;20.390;2024-01-06T08:14:10;19.20;;;4.60;;
55364;SDS011;41245;45.384;20.390;2024-01-06T08:16:36;19.42;;;8.90;;
55364;SDS011;41245;45.384;20.390;2024-01-06T08:19:02;12.13;;;5.30;;
55364;SDS011;41245;45.384;20.390;2024-01-06T08:21:28;17.70;;;4.60;;
55364;SDS011;41245;45.384;20.390;2024-01-06T08:23:54;10.95;;;5.28;;
55364;SDS011;41245;45.384;20.390;2024-01-06T08:26:21;10.75;;;4.45;;
55364;SDS011;41245;45.384;20.390;2024-01-06T08:28:47;17.77;;;4.65;;
55364;SDS011;41245;45.384;20.390;2024-01-06T08:31:13;7.78;;;4.60;;
55364;SDS011;41245;45.384;20.390;2024-01-06T08:33:39;11.02;;;5.10;;
55364;SDS011;41245;45.384;20.390;2024-01-06T08:36:05;11.50;;;4.72;;
55364;SDS011;41245;45.384;20.390;2024-01-06T08:38:31;12.40;;;5.15;;
55364;SDS011;41245;45.384;20.390;2024-01-06T08:40:57;10.25;;;4.43;;
55364;SDS011;41245;45.384;20.390;2024-01-06T08:43:23;12.25;;;5.25;;
55364;SDS011;41245;45.384;20.390;2024-01-06T08:45:49;8.18;;;4.70;;
55364;SDS011;41245;45.384;20.390;2024-01-06T08:48:16;11.20;;;5.35;;
55364;SDS011;41245;45.384;20.390;2024-01-06T08:50:43;10.73;;;5.07;;
55364;SDS011;41245;45.384;20.390;2024-01-06T08:53:10;11.85;;;4.88;;
55364;SDS011;41245;45.384;20.390;2024-01-06T08:55:36;13.02;;;4.93;;
55364;SDS011;41245;45.384;20.390;2024-01-06T08:58:02;13.05;;;5.68;;
55364;SDS011;41245;45.384;20.390;2024-01-06T09:00:29;11.45;;;5.57;;
55364;SDS011;41245;45.384;20.390;2024-01-06T09:02:55;8.68;;;5.18;;
55364;SDS011;41245;45.384;20.390;2024-01-06T09:05:21;12.85;;;5.47;;
55364;SDS011;41245;45.384;20.390;2024-01-06T09:07:47;14.25;;;5.68;;
55364;SDS011;41245;45.384;20.390;2024-01-06T09:10:16;22.92;;;7.10;;
55364;SDS011;41245;45.384;20.390;2024-01-06T09:12:42;14.30;;;5.63;;
55364;SDS011;41245;45.384;20.390;2024-01-06T09:15:08;9.85;;;4.93;;
55364;SDS011;41245;45.384;20.390;2024-01-06T09:17:34;10.48;;;5.30;;
55364;SDS011;41245;45.384;20.390;2024-01-06T09:20:01;11.25;;;5.18;;
55364;SDS011;41245;45.384;20.390;2024-01-06T09:22:28;9.43;;;5.40;;
55364;SDS011;41245;45.384;20.390;2024-01-06T09:24:54;16.58;;;5.25;;
55364;SDS011;41245;45.384;20.390;2024-01-06T09:27:20;10.80;;;5.82;;
55364;SDS011;41245;45.384;20.390;2024-01-06T09:29:46;12.05;;;5.57;;
55364;SDS011;41245;45.384;20.390;2024-01-06T09:32:12;14.60;;;5.70;;
55364;SDS011;41245;45.384;20.390;2024-01-06T09:34:39;16.73;;;6.38;;
55364;SDS011;41245;45.384;20.390;2024-01-06T09:37:05;13.25;;;5.57;;
55364;SDS011;41245;45.384;20.390;2024-01-06T09:39:31;12.95;;;5.75;;
55364;SDS011;41245;45.384;20.390;2024-01-06T09:41:57;11.02;;;6.28;;
55364;SDS011;41245;45.384;20.390;2024-01-06T09:44:23;17.85;;;6.03;;
55364;SDS011;41245;45.384;20.390;2024-01-06T09:46:49;9.18;;;5.80;;
55364;SDS011;41245;45.384;20.390;2024-01-06T09:49:21;13.38;;;5.88;;
55364;SDS011;41245;45.384;20.390;2024-01-06T09:51:48;10.85;;;5.85;;
55364;SDS011;41245;45.384;20.390;2024-01-06T09:54:21;14.63;;;6.38;;
55364;SDS011;41245;45.384;20.390;2024-01-06T09:56:49;14.48;;;6.55;;
55364;SDS011;41245;45.384;20.390;2024-01-06T09:59:15;20.63;;;8.77;;
55364;SDS011;41245;45.384;20.390;2024-01-06T10:01:41;27.40;;;7.45;;
55364;SDS011;41245;45.384;20.390;2024-01-06T10:04:08;20.55;;;8.43;;
55364;SDS011;41245;45.384;20.390;2024-01-06T10:06:34;19.70;;;8.32;;
55364;SDS011;41245;45.384;20.390;2024-01-06T10:09:01;23.00;;;8.93;;
55364;SDS011;41245;45.384;20.390;2024-01-06T10:11:29;15.95;;;8.43;;
55364;SDS011;41245;45.384;20.390;2024-01-06T10:13:55;17.80;;;7.55;;
55364;SDS011;41245;45.384;20.390;2024-01-06T10:16:21;17.58;;;8.25;;
55364;SDS011;41245;45.384;20.390;2024-01-06T10:18:47;17.35;;;8.18;;
55364;SDS011;41245;45.384;20.390;2024-01-06T10:21:14;15.50;;;6.68;;
55364;SDS011;41245;45.384;20.390;2024-01-06T10:23:42;13.30;;;6.22;;
55364;SDS011;41245;45.384;20.390;2024-01-06T10:26:13;12.73;;;7.32;;
55364;SDS011;41245;45.384;20.390;2024-01-06T10:28:39;20.92;;;7.22;;
55364;SDS011;41245;45.384;20.390;2024-01-06T10:31:07;10.98;;;6.50;;
55364;SDS011;41245;45.384;20.390;2024-01-06T10:33:33;15.95;;;6.18;;
55364;SDS011;41245;45.384;20.390;2024-01-06T10:35:59;12.07;;;5.07;;
55364;SDS011;41245;45.384;20.390;2024-01-06T10:38:26;15.20;;;7.00;;
55364;SDS011;41245;45.384;20.390;2024-01-06T10:43:23;12.60;;;6.05;;
55364;SDS011;41245;45.384;20.390;2024-01-06T10:45:51;16.13;;;9.20;;
55364;SDS011;41245;45.384;20.390;2024-01-06T10:48:17;18.30;;;9.40;;
55364;SDS011;41245;45.384;20.390;2024-01-06T10:50:44;17.55;;;6.88;;
55364;SDS011;41245;45.384;20.390;2024-01-06T10:53:10;11.43;;;6.22;;
55364;SDS011;41245;45.384;20.390;2024-01-06T10:55:37;19.83;;;7.50;;
55364;SDS011;41245;45.384;20.390;2024-01-06T10:58:03;23.05;;;9.73;;
55364;SDS011;41245;45.384;20.390;2024-01-06T11:00:30;15.00;;;7.53;;
55364;SDS011;41245;45.384;20.390;2024-01-06T11:02:56;17.33;;;7.57;;
55364;SDS011;41245;45.384;20.390;2024-01-06T11:05:24;16.58;;;7.03;;
55364;SDS011;41245;45.384;20.390;2024-01-06T11:07:50;15.25;;;6.40;;
55364;SDS011;41245;45.384;20.390;2024-01-06T11:13:05;15.63;;;5.53;;
55364;SDS011;41245;45.384;20.390;2024-01-06T11:15:45;14.27;;;6.18;;
55364;SDS011;41245;45.384;20.390;2024-01-06T11:18:32;12.73;;;5.72;;
55364;SDS011;41245;45.384;20.390;2024-01-06T11:26:38;15.55;;;6.47;;
55364;SDS011;41245;45.384;20.390;2024-01-06T11:29:05;14.00;;;6.53;;
55364;SDS011;41245;45.384;20.390;2024-01-06T11:31:31;15.27;;;5.68;;
55364;SDS011;41245;45.384;20.390;2024-01-06T11:33:58;9.90;;;5.53;;
55364;SDS011;41245;45.384;20.390;2024-01-06T11:36:37;16.50;;;6.05;;
55364;SDS011;41245;45.384;20.390;2024-01-06T11:39:05;11.18;;;5.20;;
55364;SDS011;41245;45.384;20.390;2024-01-06T11:41:50;11.23;;;6.15;;
55364;SDS011;41245;45.384;20.390;2024-01-06T11:44:23;23.02;;;7.05;;
55364;SDS011;41245;45.384;20.390;2024-01-06T11:46:49;33.45;;;17.13;;
55364;SDS011;41245;45.384;20.390;2024-01-06T11:49:19;34.58;;;16.75;;
55364;SDS011;41245;45.384;20.390;2024-01-06T11:51:46;23.52;;;12.15;;
55364;SDS011;41245;45.384;20.390;2024-01-06T11:54:12;95.68;;;35.67;;
55364;SDS011;41245;45.384;20.390;2024-01-06T11:56:38;15.50;;;8.13;;
55364;SDS011;41245;45.384;20.390;2024-01-06T11:59:05;14.52;;;6.80;;
55364;SDS011;41245;45.384;20.390;2024-01-06T12:01:37;10.57;;;4.63;;
55364;SDS011;41245;45.384;20.390;2024-01-06T12:04:06;14.25;;;7.43;;
55364;SDS011;41245;45.384;20.390;2024-01-06T12:06:32;15.47;;;6.17;;
55364;SDS011;41245;45.384;20.390;2024-01-06T12:09:05;12.50;;;6.85;;
55364;SDS011;41245;45.384;20.390;2024-01-06T12:11:31;16.23;;;6.93;;
55364;SDS011;41245;45.384;20.390;2024-01-06T12:13:57;12.80;;;6.97;;
55364;SDS011;41245;45.384;20.390;2024-01-06T12:16:24;23.08;;;10.77;;
55364;SDS011;41245;45.384;20.390;2024-01-06T12:21:21;24.10;;;12.15;;
55364;SDS011;41245;45.384;20.390;2024-01-06T12:23:48;31.20;;;14.63;;
55364;SDS011;41245;45.384;20.390;2024-01-06T12:26:14;25.52;;;12.27;;
55364;SDS011;41245;45.384;20.390;2024-01-06T12:28:40;41.42;;;19.33;;
55364;SDS011;41245;45.384;20.390;2024-01-06T12:31:09;37.53;;;16.77;;
55364;SDS011;41245;45.384;20.390;2024-01-06T12:33:37;19.85;;;9.07;;
55364;SDS011;41245;45.384;20.390;2024-01-06T12:36:04;17.67;;;8.35;;
55364;SDS011;41245;45.384;20.390;2024-01-06T12:38:30;18.10;;;9.60;;
55364;SDS011;41245;45.384;20.390;2024-01-06T12:40:56;17.63;;;8.80;;
55364;SDS011;41245;45.384;20.390;2024-01-06T12:43:22;15.52;;;7.50;;
55364;SDS011;41245;45.384;20.390;2024-01-06T12:45:48;14.02;;;6.35;;
55364;SDS011;41245;45.384;20.390;2024-01-06T12:48:17;18.92;;;8.43;;
55364;SDS011;41245;45.384;20.390;2024-01-06T12:50:44;22.92;;;9.68;;
55364;SDS011;41245;45.384;20.390;2024-01-06T12:53:10;22.75;;;7.00;;
55364;SDS011;41245;45.384;20.390;2024-01-06T12:55:37;14.80;;;6.90;;
55364;SDS011;41245;45.384;20.390;2024-01-06T12:58:04;13.38;;;7.72;;
55364;SDS011;41245;45.384;20.390;2024-01-06T13:00:31;15.88;;;7.10;;
55364;SDS011;41245;45.384;20.390;2024-01-06T13:02:57;12.90;;;6.75;;
55364;SDS011;41245;45.384;20.390;2024-01-06T13:05:23;12.95;;;6.43;;
55364;SDS011;41245;45.384;20.390;2024-01-06T13:07:49;16.38;;;6.95;;
55364;SDS011;41245;45.384;20.390;2024-01-06T13:10:15;12.82;;;7.18;;
55364;SDS011;41245;45.384;20.390;2024-01-06T13:12:41;14.70;;;6.95;;
55364;SDS011;41245;45.384;20.390;2024-01-06T13:15:07;14.50;;;6.78;;
55364;SDS011;41245;45.384;20.390;2024-01-06T13:17:36;16.90;;;7.40;;
55364;SDS011;41245;45.384;20.390;2024-01-06T13:20:02;13.52;;;6.93;;
55364;SDS011;41245;45.384;20.390;2024-01-06T13:22:29;11.45;;;6.35;;
55364;SDS011;41245;45.384;20.390;2024-01-06T13:24:55;10.07;;;5.85;;
55364;SDS011;41245;45.384;20.390;2024-01-06T13:27:21;17.17;;;7.22;;
55364;SDS011;41245;45.384;20.390;2024-01-06T13:29:48;14.13;;;7.63;;
55364;SDS011;41245;45.384;20.390;2024-01-06T13:32:14;15.15;;;6.55;;
55364;SDS011;41245;45.384;20.390;2024-01-06T13:34:40;13.43;;;7.00;;
55364;SDS011;41245;45.384;20.390;2024-01-06T13:37:07;18.42;;;8.10;;
55364;SDS011;41245;45.384;20.390;2024-01-06T13:39:33;19.80;;;6.93;;
55364;SDS011;41245;45.384;20.390;2024-01-06T13:41:59;14.52;;;6.93;;
55364;SDS011;41245;45.384;20.390;2024-01-06T13:44:25;10.40;;;6.07;;
55364;SDS011;41245;45.384;20.390;2024-01-06T13:46:51;11.88;;;6.50;;
55364;SDS011;41245;45.384;20.390;2024-01-06T13:49:19;19.35;;;6.82;;
55364;SDS011;41245;45.384;20.390;2024-01-06T13:51:45;14.80;;;7.03;;
55364;SDS011;41245;45.384;20.390;2024-01-06T13:54:12;12.18;;;6.45;;
55364;SDS011;41245;45.384;20.390;2024-01-06T13:56:38;13.75;;;6.75;;
55364;SDS011;41245;45.384;20.390;2024-01-06T13:59:05;17.92;;;6.47;;
55364;SDS011;41245;45.384;20.390;2024-01-06T14:01:31;21.30;;;6.35;;
55364;SDS011;41245;45.384;20.390;2024-01-06T14:03:57;15.25;;;6.40;;
55364;SDS011;41245;45.384;20.390;2024-01-06T14:06:24;14.77;;;8.45;;
55364;SDS011;41245;45.384;20.390;2024-01-06T14:08:54;18.70;;;7.95;;
55364;SDS011;41245;45.384;20.390;2024-01-06T14:11:20;14.38;;;7.18;;
55364;SDS011;41245;45.384;20.390;2024-01-06T14:13:46;11.90;;;6.43;;
55364;SDS011;41245;45.384;20.390;2024-01-06T14:16:14;12.73;;;7.18;;
55364;SDS011;41245;45.384;20.390;2024-01-06T14:18:40;11.93;;;6.65;;
55364;SDS011;41245;45.384;20.390;2024-01-06T14:21:08;14.90;;;7.80;;
55364;SDS011;41245;45.384;20.390;2024-01-06T14:23:34;18.00;;;7.53;;
55364;SDS011;41245;45.384;20.390;2024-01-06T14:26:00;16.63;;;7.18;;
55364;SDS011;41245;45.384;20.390;2024-01-06T14:28:26;16.88;;;7.30;;
55364;SDS011;41245;45.384;20.390;2024-01-06T14:30:52;12.30;;;6.15;;
55364;SDS011;41245;45.384;20.390;2024-01-06T14:33:18;15.23;;;6.15;;
55364;SDS011;41245;45.384;20.390;2024-01-06T14:35:45;12.93;;;6.40;;
55364;SDS011;41245;45.384;20.390;2024-01-06T14:38:11;11.00;;;6.22;;